sensor_id;sensor_type;location;lat;lon;timestamp;P1;durP1;ratioP1;P2;durP2;ratioP2
4529;SDS011;2277;51.626;7.516;2024-01-25T00:02:01;27.37;;;6.70;;
4529;SDS011;2277;51.626;7.516;2024-01-25T00:04:28;18.33;;;5.73;;
4529;SDS011;2277;51.626;7.516;2024-01-25T00:06:53;14.53;;;5.67;;
4529;SDS011;2277;51.626;7.516;2024-01-25T00:09:19;28.00;;;5.23;;
4529;SDS011;2277;51.626;7.516;2024-01-25T00:11:44;8.57;;;5.03;;
4529;SDS011;2277;51.626;7.516;2024-01-25T00:14:10;14.20;;;4.63;;
4529;SDS011;2277;51.626;7.516;2024-01-25T00:16:36;10.57;;;4.67;;
4529;SDS011;2277;51.626;7.516;2024-01-25T00:19:06;13.63;;;4.47;;
4529;SDS011;2277;51.626;7.516;2024-01-25T00:21:32;14.20;;;6.47;;
4529;SDS011;2277;51.626;7.516;2024-01-25T00:23:57;13.93;;;5.57;;
4529;SDS011;2277;51.626;7.516;2024-01-25T00:26:23;15.40;;;6.70;;
4529;SDS011;2277;51.626;7.516;2024-01-25T00:28:48;20.47;;;6.97;;
4529;SDS011;2277;51.626;7.516;2024-01-25T00:31:14;9.33;;;4.83;;
4529;SDS011;2277;51.626;7.516;2024-01-25T00:33:39;18.60;;;4.90;;
4529;SDS011;2277;51.626;7.516;2024-01-25T00:36:05;14.53;;;5.00;;
4529;SDS011;2277;51.626;7.516;2024-01-25T00:38:31;14.30;;;5.80;;
4529;SDS011;2277;51.626;7.516;2024-01-25T00:40:57;20.77;;;6.60;;
4529;SDS011;2277;51.626;7.516;2024-01-25T00:43:23;13.63;;;4.10;;
4529;SDS011;2277;51.626;7.516;2024-01-25T00:45:49;10.43;;;4.20;;
4529;SDS011;2277;51.626;7.516;2024-01-25T00:48:15;16.70;;;5.60;;
4529;SDS011;2277;51.626;7.516;2024-01-25T00:50:41;23.27;;;6.37;;
4529;SDS011;2277;51.626;7.516;2024-01-25T00:53:06;11.50;;;4.80;;
4529;SDS011;2277;51.626;7.516;2024-01-25T00:55:32;13.50;;;5.87;;
4529;SDS011;2277;51.626;7.516;2024-01-25T00:57:58;25.10;;;6.40;;
4529;SDS011;2277;51.626;7.516;2024-01-25T01:00:24;15.13;;;5.43;;
4529;SDS011;2277;51.626;7.516;2024-01-25T01:02:50;14.57;;;4.93;;
4529;SDS011;2277;51.626;7.516;2024-01-25T01:05:18;14.53;;;5.93;;
4529;SDS011;2277;51.626;7.516;2024-01-25T01:07:44;17.63;;;5.30;;
4529;SDS011;2277;51.626;7.516;2024-01-25T01:10:10;16.83;;;5.60;;
4529;SDS011;2277;51.626;7.516;2024-01-25T01:12:36;23.87;;;7.40;;
4529;SDS011;2277;51.626;7.516;2024-01-25T01:15:02;21.60;;;5.13;;
4529;SDS011;2277;51.626;7.516;2024-01-25T01:17:28;13.80;;;5.10;;
4529;SDS011;2277;51.626;7.516;2024-01-25T01:19:54;32.40;;;8.00;;
4529;SDS011;2277;51.626;7.516;2024-01-25T01:22:20;16.73;;;4.90;;
4529;SDS011;2277;51.626;7.516;2024-01-25T01:24:45;32.83;;;5.80;;
4529;SDS011;2277;51.626;7.516;2024-01-25T01:27:11;15.13;;;5.43;;
4529;SDS011;2277;51.626;7.516;2024-01-25T01:29:36;25.30;;;8.00;;
4529;SDS011;2277;51.626;7.516;2024-01-25T01:32:02;12.20;;;5.43;;
4529;SDS011;2277;51.626;7.516;2024-01-25T01:34:31;13.70;;;4.10;;
4529;SDS011;2277;51.626;7.516;2024-01-25T01:36:57;13.33;;;6.07;;
4529;SDS011;2277;51.626;7.516;2024-01-25T01:39:22;9.70;;;3.80;;
4529;SDS011;2277;51.626;7.516;2024-01-25T01:41:48;21.43;;;8.10;;
4529;SDS011;2277;51.626;7.516;2024-01-25T01:44:14;13.03;;;4.10;;
4529;SDS011;2277;51.626;7.516;2024-01-25T01:46:40;14.60;;;4.80;;
4529;SDS011;2277;51.626;7.516;2024-01-25T01:49:07;14.53;;;5.37;;
4529;SDS011;2277;51.626;7.516;2024-01-25T01:51:36;16.80;;;4.33;;
4529;SDS011;2277;51.626;7.516;2024-01-25T01:54:03;19.10;;;5.30;;
4529;SDS011;2277;51.626;7.516;2024-01-25T01:56:31;14.77;;;4.33;;
4529;SDS011;2277;51.626;7.516;2024-01-25T01:58:57;20.10;;;7.93;;
4529;SDS011;2277;51.626;7.516;2024-01-25T02:01:27;12.37;;;5.17;;
4529;SDS011;2277;51.626;7.516;2024-01-25T02:03:53;16.43;;;4.63;;
4529;SDS011;2277;51.626;7.516;2024-01-25T02:06:19;18.80;;;4.77;;
4529;SDS011;2277;51.626;7.516;2024-01-25T02:08:46;23.93;;;5.47;;
4529;SDS011;2277;51.626;7.516;2024-01-25T02:11:12;9.30;;;3.90;;
4529;SDS011;2277;51.626;7.516;2024-01-25T02:13:38;9.80;;;4.43;;
4529;SDS011;2277;51.626;7.516;2024-01-25T02:16:04;9.90;;;4.47;;
4529;SDS011;2277;51.626;7.516;2024-01-25T02:18:31;9.77;;;5.37;;
4529;SDS011;2277;51.626;7.516;2024-01-25T02:20:58;13.80;;;5.50;;
4529;SDS011;2277;51.626;7.516;2024-01-25T02:23:23;19.93;;;5.37;;
4529;SDS011;2277;51.626;7.516;2024-01-25T02:25:49;16.90;;;5.60;;
4529;SDS011;2277;51.626;7.516;2024-01-25T02:28:15;13.80;;;4.37;;
4529;SDS011;2277;51.626;7.516;2024-01-25T02:30:40;12.23;;;3.50;;
4529;SDS011;2277;51.626;7.516;2024-01-25T02:33:06;28.30;;;6.07;;
4529;SDS011;2277;51.626;7.516;2024-01-25T02:35:32;17.77;;;5.03;;
4529;SDS011;2277;51.626;7.516;2024-01-25T02:37:58;18.40;;;4.47;;
4529;SDS011;2277;51.626;7.516;2024-01-25T02:40:23;14.23;;;6.20;;
4529;SDS011;2277;51.626;7.516;2024-01-25T02:42:49;9.47;;;4.40;;
4529;SDS011;2277;51.626;7.516;2024-01-25T02:45:14;10.30;;;5.53;;
4529;SDS011;2277;51.626;7.516;2024-01-25T02:47:40;22.53;;;4.67;;
4529;SDS011;2277;51.626;7.516;2024-01-25T02:50:06;14.13;;;5.10;;
4529;SDS011;2277;51.626;7.516;2024-01-25T02:52:31;20.70;;;6.00;;
4529;SDS011;2277;51.626;7.516;2024-01-25T02:54:57;8.83;;;4.70;;
4529;SDS011;2277;51.626;7.516;2024-01-25T02:57:23;14.87;;;3.67;;
4529;SDS011;2277;51.626;7.516;2024-01-25T02:59:48;17.10;;;5.30;;
4529;SDS011;2277;51.626;7.516;2024-01-25T03:02:14;11.27;;;4.53;;
4529;SDS011;2277;51.626;7.516;2024-01-25T03:04:41;11.73;;;4.37;;
4529;SDS011;2277;51.626;7.516;2024-01-25T03:07:07;16.27;;;3.93;;
4529;SDS011;2277;51.626;7.516;2024-01-25T03:09:32;17.47;;;4.67;;
4529;SDS011;2277;51.626;7.516;2024-01-25T03:11:58;15.00;;;3.90;;
4529;SDS011;2277;51.626;7.516;2024-01-25T03:14:24;17.60;;;4.77;;
4529;SDS011;2277;51.626;7.516;2024-01-25T03:16:49;19.40;;;4.23;;
4529;SDS011;2277;51.626;7.516;2024-01-25T03:19:15;15.17;;;7.20;;
4529;SDS011;2277;51.626;7.516;2024-01-25T03:21:40;10.30;;;5.50;;
4529;SDS011;2277;51.626;7.516;2024-01-25T03:24:06;12.33;;;4.70;;
4529;SDS011;2277;51.626;7.516;2024-01-25T03:26:31;9.90;;;3.70;;
4529;SDS011;2277;51.626;7.516;2024-01-25T03:28:57;10.60;;;4.37;;
4529;SDS011;2277;51.626;7.516;2024-01-25T03:31:23;15.17;;;4.73;;
4529;SDS011;2277;51.626;7.516;2024-01-25T03:33:48;12.90;;;5.17;;
4529;SDS011;2277;51.626;7.516;2024-01-25T03:36:14;11.17;;;4.63;;
4529;SDS011;2277;51.626;7.516;2024-01-25T03:38:40;18.00;;;6.20;;
4529;SDS011;2277;51.626;7.516;2024-01-25T03:41:06;21.47;;;5.63;;
4529;SDS011;2277;51.626;7.516;2024-01-25T03:43:32;10.30;;;5.47;;
4529;SDS011;2277;51.626;7.516;2024-01-25T03:45:57;11.50;;;4.17;;
4529;SDS011;2277;51.626;7.516;2024-01-25T03:48:23;19.73;;;5.50;;
4529;SDS011;2277;51.626;7.516;2024-01-25T03:50:48;14.10;;;4.43;;
4529;SDS011;2277;51.626;7.516;2024-01-25T03:53:14;16.63;;;6.13;;
4529;SDS011;2277;51.626;7.516;2024-01-25T03:55:40;18.97;;;6.10;;
4529;SDS011;2277;51.626;7.516;2024-01-25T03:58:06;17.30;;;5.80;;
4529;SDS011;2277;51.626;7.516;2024-01-25T04:00:31;19.33;;;5.57;;
4529;SDS011;2277;51.626;7.516;2024-01-25T04:02:57;13.57;;;4.70;;
4529;SDS011;2277;51.626;7.516;2024-01-25T04:05:23;12.67;;;4.67;;
4529;SDS011;2277;51.626;7.516;2024-01-25T04:07:48;18.07;;;5.90;;
4529;SDS011;2277;51.626;7.516;2024-01-25T04:10:14;11.57;;;4.10;;
4529;SDS011;2277;51.626;7.516;2024-01-25T04:12:40;22.53;;;5.20;;
4529;SDS011;2277;51.626;7.516;2024-01-25T04:15:06;19.70;;;4.83;;
4529;SDS011;2277;51.626;7.516;2024-01-25T04:17:31;12.20;;;5.30;;
4529;SDS011;2277;51.626;7.516;2024-01-25T04:19:57;17.53;;;6.33;;
4529;SDS011;2277;51.626;7.516;2024-01-25T04:22:23;18.63;;;4.10;;
4529;SDS011;2277;51.626;7.516;2024-01-25T04:24:48;16.60;;;6.90;;
4529;SDS011;2277;51.626;7.516;2024-01-25T04:27:15;11.43;;;5.17;;
4529;SDS011;2277;51.626;7.516;2024-01-25T04:29:41;14.27;;;6.23;;
4529;SDS011;2277;51.626;7.516;2024-01-25T04:32:07;14.47;;;4.93;;
4529;SDS011;2277;51.626;7.516;2024-01-25T04:34:33;14.90;;;5.10;;
4529;SDS011;2277;51.626;7.516;2024-01-25T04:36:59;14.13;;;5.20;;
4529;SDS011;2277;51.626;7.516;2024-01-25T04:39:24;14.30;;;5.70;;
4529;SDS011;2277;51.626;7.516;2024-01-25T04:41:50;11.50;;;5.30;;
4529;SDS011;2277;51.626;7.516;2024-01-25T04:44:15;23.17;;;8.20;;
4529;SDS011;2277;51.626;7.516;2024-01-25T04:46:41;17.60;;;5.83;;
4529;SDS011;2277;51.626;7.516;2024-01-25T04:49:07;13.27;;;6.00;;
4529;SDS011;2277;51.626;7.516;2024-01-25T04:51:32;11.87;;;6.20;;
4529;SDS011;2277;51.626;7.516;2024-01-25T04:53:58;8.77;;;4.63;;
4529;SDS011;2277;51.626;7.516;2024-01-25T04:56:23;22.47;;;6.07;;
4529;SDS011;2277;51.626;7.516;2024-01-25T04:58:49;14.57;;;6.77;;
4529;SDS011;2277;51.626;7.516;2024-01-25T05:01:15;10.13;;;5.23;;
4529;SDS011;2277;51.626;7.516;2024-01-25T05:03:40;9.30;;;5.87;;
4529;SDS011;2277;51.626;7.516;2024-01-25T05:06:06;13.70;;;4.80;;
4529;SDS011;2277;51.626;7.516;2024-01-25T05:08:31;14.47;;;5.13;;
4529;SDS011;2277;51.626;7.516;2024-01-25T05:10:57;12.67;;;6.90;;
4529;SDS011;2277;51.626;7.516;2024-01-25T05:13:22;28.07;;;6.10;;
4529;SDS011;2277;51.626;7.516;2024-01-25T05:15:48;14.77;;;6.13;;
4529;SDS011;2277;51.626;7.516;2024-01-25T05:18:14;12.13;;;5.27;;
4529;SDS011;2277;51.626;7.516;2024-01-25T05:20:39;19.03;;;5.30;;
4529;SDS011;2277;51.626;7.516;2024-01-25T05:23:05;13.83;;;7.03;;
4529;SDS011;2277;51.626;7.516;2024-01-25T05:25:31;10.70;;;5.50;;
4529;SDS011;2277;51.626;7.516;2024-01-25T05:27:56;12.53;;;6.37;;
4529;SDS011;2277;51.626;7.516;2024-01-25T05:30:23;22.23;;;6.57;;
4529;SDS011;2277;51.626;7.516;2024-01-25T05:32:49;8.37;;;4.50;;
4529;SDS011;2277;51.626;7.516;2024-01-25T05:35:15;19.53;;;7.93;;
4529;SDS011;2277;51.626;7.516;2024-01-25T05:37:42;11.50;;;4.57;;
4529;SDS011;2277;51.626;7.516;2024-01-25T05:40:08;16.30;;;5.60;;
4529;SDS011;2277;51.626;7.516;2024-01-25T05:42:34;23.83;;;5.80;;
4529;SDS011;2277;51.626;7.516;2024-01-25T05:45:00;19.20;;;7.80;;
4529;SDS011;2277;51.626;7.516;2024-01-25T05:47:27;8.87;;;4.53;;
4529;SDS011;2277;51.626;7.516;2024-01-25T05:49:53;13.53;;;5.57;;
4529;SDS011;2277;51.626;7.516;2024-01-25T05:52:19;20.03;;;4.47;;
4529;SDS011;2277;51.626;7.516;2024-01-25T05:54:46;16.00;;;5.03;;
4529;SDS011;2277;51.626;7.516;2024-01-25T05:57:11;9.00;;;5.40;;
4529;SDS011;2277;51.626;7.516;2024-01-25T05:59:37;14.80;;;5.10;;
4529;SDS011;2277;51.626;7.516;2024-01-25T06:02:03;12.90;;;5.40;;
4529;SDS011;2277;51.626;7.516;2024-01-25T06:04:30;15.57;;;6.37;;
4529;SDS011;2277;51.626;7.516;2024-01-25T06:06:55;18.03;;;5.23;;
4529;SDS011;2277;51.626;7.516;2024-01-25T06:09:21;21.10;;;7.13;;
4529;SDS011;2277;51.626;7.516;2024-01-25T06:11:47;20.97;;;5.67;;
4529;SDS011;2277;51.626;7.516;2024-01-25T06:14:13;20.70;;;5.63;;
4529;SDS011;2277;51.626;7.516;2024-01-25T06:16:38;26.60;;;8.03;;
4529;SDS011;2277;51.626;7.516;2024-01-25T06:19:04;26.53;;;5.57;;
4529;SDS011;2277;51.626;7.516;2024-01-25T06:21:30;16.23;;;5.67;;
4529;SDS011;2277;51.626;7.516;2024-01-25T06:23:55;14.50;;;6.70;;
4529;SDS011;2277;51.626;7.516;2024-01-25T06:26:21;18.53;;;6.70;;
4529;SDS011;2277;51.626;7.516;2024-01-25T06:28:46;16.83;;;5.70;;
4529;SDS011;2277;51.626;7.516;2024-01-25T06:31:12;10.07;;;4.30;;
4529;SDS011;2277;51.626;7.516;2024-01-25T06:33:37;13.40;;;5.03;;
4529;SDS011;2277;51.626;7.516;2024-01-25T06:36:03;13.57;;;5.40;;
4529;SDS011;2277;51.626;7.516;2024-01-25T06:38:29;15.10;;;7.23;;
4529;SDS011;2277;51.626;7.516;2024-01-25T06:40:54;25.50;;;6.53;;
4529;SDS011;2277;51.626;7.516;2024-01-25T06:43:20;14.20;;;5.37;;
4529;SDS011;2277;51.626;7.516;2024-01-25T06:45:45;17.67;;;7.10;;
4529;SDS011;2277;51.626;7.516;2024-01-25T06:48:11;21.87;;;5.30;;
4529;SDS011;2277;51.626;7.516;2024-01-25T06:50:37;21.60;;;6.50;;
4529;SDS011;2277;51.626;7.516;2024-01-25T06:53:03;18.23;;;8.90;;
4529;SDS011;2277;51.626;7.516;2024-01-25T06:55:29;14.27;;;5.57;;
4529;SDS011;2277;51.626;7.516;2024-01-25T06:57:54;32.27;;;7.13;;
4529;SDS011;2277;51.626;7.516;2024-01-25T07:00:20;14.60;;;7.80;;
4529;SDS011;2277;51.626;7.516;2024-01-25T07:02:46;13.73;;;5.80;;
4529;SDS011;2277;51.626;7.516;2024-01-25T07:05:12;19.83;;;5.43;;
4529;SDS011;2277;51.626;7.516;2024-01-25T07:07:38;28.40;;;7.70;;
4529;SDS011;2277;51.626;7.516;2024-01-25T07:10:05;21.00;;;6.27;;
4529;SDS011;2277;51.626;7.516;2024-01-25T07:12:31;15.93;;;7.00;;
4529;SDS011;2277;51.626;7.516;2024-01-25T07:14:57;18.13;;;6.10;;
4529;SDS011;2277;51.626;7.516;2024-01-25T07:17:23;33.43;;;8.00;;
4529;SDS011;2277;51.626;7.516;2024-01-25T07:19:48;20.63;;;8.87;;
4529;SDS011;2277;51.626;7.516;2024-01-25T07:22:14;25.53;;;7.40;;
4529;SDS011;2277;51.626;7.516;2024-01-25T07:24:40;20.20;;;7.00;;
4529;SDS011;2277;51.626;7.516;2024-01-25T07:27:06;18.97;;;7.77;;
4529;SDS011;2277;51.626;7.516;2024-01-25T07:29:32;14.83;;;7.30;;
4529;SDS011;2277;51.626;7.516;2024-01-25T07:31:57;16.93;;;6.43;;
4529;SDS011;2277;51.626;7.516;2024-01-25T07:34:23;10.10;;;6.40;;
4529;SDS011;2277;51.626;7.516;2024-01-25T07:36:49;16.23;;;10.10;;
4529;SDS011;2277;51.626;7.516;2024-01-25T07:39:14;25.97;;;6.40;;
4529;SDS011;2277;51.626;7.516;2024-01-25T07:41:40;22.33;;;7.97;;
4529;SDS011;2277;51.626;7.516;2024-01-25T07:44:05;15.50;;;5.53;;
4529;SDS011;2277;51.626;7.516;2024-01-25T07:46:31;14.83;;;7.20;;
4529;SDS011;2277;51.626;7.516;2024-01-25T07:48:56;19.23;;;6.90;;
4529;SDS011;2277;51.626;7.516;2024-01-25T07:51:22;19.30;;;11.10;;
4529;SDS011;2277;51.626;7.516;2024-01-25T07:53:48;17.13;;;6.37;;
4529;SDS011;2277;51.626;7.516;2024-01-25T07:56:13;17.23;;;7.70;;
4529;SDS011;2277;51.626;7.516;2024-01-25T07:58:39;19.20;;;8.47;;
4529;SDS011;2277;51.626;7.516;2024-01-25T08:01:06;11.10;;;5.33;;
4529;SDS011;2277;51.626;7.516;2024-01-25T08:03:32;12.37;;;5.43;;
4529;SDS011;2277;51.626;7.516;2024-01-25T08:05:58;14.70;;;6.63;;
4529;SDS011;2277;51.626;7.516;2024-01-25T08:08:24;23.43;;;8.30;;
4529;SDS011;2277;51.626;7.516;2024-01-25T08:10:50;16.40;;;7.93;;
4529;SDS011;2277;51.626;7.516;2024-01-25T08:13:15;21.40;;;7.30;;
4529;SDS011;2277;51.626;7.516;2024-01-25T08:15:41;11.17;;;5.70;;
4529;SDS011;2277;51.626;7.516;2024-01-25T08:18:07;26.83;;;7.60;;
4529;SDS011;2277;51.626;7.516;2024-01-25T08:20:32;14.57;;;6.73;;
4529;SDS011;2277;51.626;7.516;2024-01-25T08:22:58;18.60;;;5.90;;
4529;SDS011;2277;51.626;7.516;2024-01-25T08:25:24;15.20;;;5.97;;
4529;SDS011;2277;51.626;7.516;2024-01-25T08:27:50;16.93;;;6.90;;
4529;SDS011;2277;51.626;7.516;2024-01-25T08:30:16;15.10;;;8.03;;
4529;SDS011;2277;51.626;7.516;2024-01-25T08:32:41;19.30;;;9.73;;
4529;SDS011;2277;51.626;7.516;2024-01-25T08:35:07;21.83;;;8.30;;
4529;SDS011;2277;51.626;7.516;2024-01-25T08:37:33;32.73;;;8.43;;
4529;SDS011;2277;51.626;7.516;2024-01-25T08:40:01;23.47;;;8.77;;
4529;SDS011;2277;51.626;7.516;2024-01-25T08:42:27;19.97;;;8.00;;
4529;SDS011;2277;51.626;7.516;2024-01-25T08:44:52;15.00;;;6.83;;
4529;SDS011;2277;51.626;7.516;2024-01-25T08:47:18;13.50;;;8.07;;
4529;SDS011;2277;51.626;7.516;2024-01-25T08:49:44;20.20;;;7.30;;
4529;SDS011;2277;51.626;7.516;2024-01-25T08:52:09;20.63;;;9.40;;
4529;SDS011;2277;51.626;7.516;2024-01-25T08:54:35;26.87;;;8.10;;
4529;SDS011;2277;51.626;7.516;2024-01-25T08:57:02;17.87;;;7.80;;
4529;SDS011;2277;51.626;7.516;2024-01-25T08:59:29;27.00;;;10.37;;
4529;SDS011;2277;51.626;7.516;2024-01-25T09:01:57;19.40;;;8.83;;
4529;SDS011;2277;51.626;7.516;2024-01-25T09:04:23;20.30;;;9.17;;
4529;SDS011;2277;51.626;7.516;2024-01-25T09:06:49;18.80;;;8.37;;
4529;SDS011;2277;51.626;7.516;2024-01-25T09:09:15;17.80;;;6.80;;
4529;SDS011;2277;51.626;7.516;2024-01-25T09:11:40;19.70;;;7.70;;
4529;SDS011;2277;51.626;7.516;2024-01-25T09:14:06;21.07;;;12.53;;
4529;SDS011;2277;51.626;7.516;2024-01-25T09:16:31;21.27;;;9.40;;
4529;SDS011;2277;51.626;7.516;2024-01-25T09:18:57;17.53;;;10.50;;
4529;SDS011;2277;51.626;7.516;2024-01-25T09:21:23;23.13;;;11.17;;
4529;SDS011;2277;51.626;7.516;2024-01-25T09:23:49;12.17;;;6.37;;
4529;SDS011;2277;51.626;7.516;2024-01-25T09:26:14;20.30;;;7.60;;
4529;SDS011;2277;51.626;7.516;2024-01-25T09:28:40;13.33;;;6.67;;
4529;SDS011;2277;51.626;7.516;2024-01-25T09:31:06;14.00;;;8.80;;
4529;SDS011;2277;51.626;7.516;2024-01-25T09:33:31;22.50;;;9.40;;
4529;SDS011;2277;51.626;7.516;2024-01-25T09:35:58;20.73;;;8.57;;
4529;SDS011;2277;51.626;7.516;2024-01-25T09:38:24;24.93;;;8.63;;
4529;SDS011;2277;51.626;7.516;2024-01-25T09:40:49;12.10;;;7.73;;
4529;SDS011;2277;51.626;7.516;2024-01-25T09:43:16;16.90;;;7.50;;
4529;SDS011;2277;51.626;7.516;2024-01-25T09:45:42;21.20;;;7.50;;
4529;SDS011;2277;51.626;7.516;2024-01-25T09:48:09;14.10;;;7.00;;
4529;SDS011;2277;51.626;7.516;2024-01-25T09:50:35;21.43;;;7.80;;
4529;SDS011;2277;51.626;7.516;2024-01-25T09:53:02;24.07;;;8.40;;
4529;SDS011;2277;51.626;7.516;2024-01-25T09:55:30;16.33;;;8.83;;
4529;SDS011;2277;51.626;7.516;2024-01-25T09:57:59;20.20;;;9.40;;
4529;SDS011;2277;51.626;7.516;2024-01-25T10:00:25;16.90;;;8.43;;
4529;SDS011;2277;51.626;7.516;2024-01-25T10:02:51;13.43;;;7.70;;
4529;SDS011;2277;51.626;7.516;2024-01-25T10:05:18;20.40;;;6.80;;
4529;SDS011;2277;51.626;7.516;2024-01-25T10:07:44;17.70;;;8.20;;
4529;SDS011;2277;51.626;7.516;2024-01-25T10:10:11;20.63;;;8.40;;
4529;SDS011;2277;51.626;7.516;2024-01-25T10:12:38;18.83;;;8.77;;
4529;SDS011;2277;51.626;7.516;2024-01-25T10:15:05;20.73;;;7.33;;
4529;SDS011;2277;51.626;7.516;2024-01-25T10:17:31;23.43;;;8.43;;
4529;SDS011;2277;51.626;7.516;2024-01-25T10:19:56;17.87;;;9.40;;
4529;SDS011;2277;51.626;7.516;2024-01-25T10:22:22;23.00;;;9.60;;
4529;SDS011;2277;51.626;7.516;2024-01-25T10:24:48;21.90;;;8.60;;
4529;SDS011;2277;51.626;7.516;2024-01-25T10:27:18;20.50;;;8.37;;
4529;SDS011;2277;51.626;7.516;2024-01-25T10:29:44;16.40;;;7.70;;
4529;SDS011;2277;51.626;7.516;2024-01-25T10:32:10;17.20;;;7.17;;
4529;SDS011;2277;51.626;7.516;2024-01-25T10:34:37;25.77;;;8.10;;
4529;SDS011;2277;51.626;7.516;2024-01-25T10:37:06;18.43;;;8.07;;
4529;SDS011;2277;51.626;7.516;2024-01-25T10:39:32;14.40;;;6.97;;
4529;SDS011;2277;51.626;7.516;2024-01-25T10:41:59;26.77;;;9.63;;
4529;SDS011;2277;51.626;7.516;2024-01-25T10:44:25;24.13;;;9.30;;
4529;SDS011;2277;51.626;7.516;2024-01-25T10:46:51;17.70;;;7.97;;
4529;SDS011;2277;51.626;7.516;2024-01-25T10:49:19;14.00;;;7.20;;
4529;SDS011;2277;51.626;7.516;2024-01-25T10:51:45;25.43;;;7.93;;
4529;SDS011;2277;51.626;7.516;2024-01-25T10:54:12;16.57;;;8.50;;
4529;SDS011;2277;51.626;7.516;2024-01-25T10:56:42;19.27;;;7.93;;
4529;SDS011;2277;51.626;7.516;2024-01-25T10:59:07;18.47;;;6.60;;
4529;SDS011;2277;51.626;7.516;2024-01-25T11:01:35;21.43;;;7.30;;
4529;SDS011;2277;51.626;7.516;2024-01-25T11:04:01;16.10;;;7.50;;
4529;SDS011;2277;51.626;7.516;2024-01-25T11:06:27;18.60;;;7.60;;
4529;SDS011;2277;51.626;7.516;2024-01-25T11:09:06;23.03;;;9.43;;
4529;SDS011;2277;51.626;7.516;2024-01-25T11:11:35;22.87;;;9.87;;
4529;SDS011;2277;51.626;7.516;2024-01-25T11:14:01;16.70;;;9.73;;
4529;SDS011;2277;51.626;7.516;2024-01-25T11:16:28;44.30;;;8.93;;
4529;SDS011;2277;51.626;7.516;2024-01-25T11:18:55;20.37;;;7.43;;
4529;SDS011;2277;51.626;7.516;2024-01-25T11:24:12;27.50;;;12.10;;
4529;SDS011;2277;51.626;7.516;2024-01-25T11:26:48;23.70;;;11.03;;
4529;SDS011;2277;51.626;7.516;2024-01-25T11:29:21;28.73;;;12.20;;
4529;SDS011;2277;51.626;7.516;2024-01-25T11:31:49;39.87;;;11.03;;
4529;SDS011;2277;51.626;7.516;2024-01-25T11:34:16;20.70;;;9.53;;
4529;SDS011;2277;51.626;7.516;2024-01-25T11:36:45;29.87;;;10.30;;
4529;SDS011;2277;51.626;7.516;2024-01-25T11:39:12;20.80;;;10.33;;
4529;SDS011;2277;51.626;7.516;2024-01-25T11:41:38;17.77;;;9.37;;
4529;SDS011;2277;51.626;7.516;2024-01-25T11:44:04;17.60;;;8.53;;
4529;SDS011;2277;51.626;7.516;2024-01-25T11:46:30;20.27;;;9.33;;
4529;SDS011;2277;51.626;7.516;2024-01-25T11:48:57;18.97;;;8.27;;
4529;SDS011;2277;51.626;7.516;2024-01-25T11:51:24;17.97;;;8.33;;
4529;SDS011;2277;51.626;7.516;2024-01-25T11:53:50;28.33;;;12.33;;
4529;SDS011;2277;51.626;7.516;2024-01-25T11:56:20;19.57;;;8.23;;
4529;SDS011;2277;51.626;7.516;2024-01-25T11:58:49;20.37;;;8.97;;
4529;SDS011;2277;51.626;7.516;2024-01-25T12:01:15;24.90;;;8.73;;
4529;SDS011;2277;51.626;7.516;2024-01-25T12:03:43;23.97;;;10.50;;
4529;SDS011;2277;51.626;7.516;2024-01-25T12:06:08;29.40;;;11.37;;
4529;SDS011;2277;51.626;7.516;2024-01-25T12:08:35;22.70;;;10.27;;
4529;SDS011;2277;51.626;7.516;2024-01-25T12:11:08;14.47;;;8.40;;
4529;SDS011;2277;51.626;7.516;2024-01-25T12:13:35;19.93;;;8.40;;
4529;SDS011;2277;51.626;7.516;2024-01-25T12:16:02;25.90;;;9.47;;
4529;SDS011;2277;51.626;7.516;2024-01-25T12:18:28;23.00;;;9.03;;
4529;SDS011;2277;51.626;7.516;2024-01-25T12:20:57;21.17;;;9.93;;
4529;SDS011;2277;51.626;7.516;2024-01-25T12:23:29;18.27;;;9.50;;
4529;SDS011;2277;51.626;7.516;2024-01-25T12:26:09;24.83;;;10.60;;
4529;SDS011;2277;51.626;7.516;2024-01-25T12:28:35;22.23;;;9.30;;
4529;SDS011;2277;51.626;7.516;2024-01-25T12:31:03;20.20;;;10.80;;
4529;SDS011;2277;51.626;7.516;2024-01-25T12:33:30;26.70;;;9.77;;
4529;SDS011;2277;51.626;7.516;2024-01-25T12:35:56;23.33;;;10.47;;
4529;SDS011;2277;51.626;7.516;2024-01-25T12:38:23;15.50;;;8.83;;
4529;SDS011;2277;51.626;7.516;2024-01-25T12:40:50;41.60;;;9.77;;
4529;SDS011;2277;51.626;7.516;2024-01-25T12:43:16;17.10;;;9.43;;
4529;SDS011;2277;51.626;7.516;2024-01-25T12:45:43;16.60;;;8.30;;
4529;SDS011;2277;51.626;7.516;2024-01-25T12:48:09;21.47;;;8.87;;
4529;SDS011;2277;51.626;7.516;2024-01-25T12:50:35;26.57;;;8.73;;
4529;SDS011;2277;51.626;7.516;2024-01-25T12:53:01;15.03;;;8.03;;
4529;SDS011;2277;51.626;7.516;2024-01-25T12:55:30;17.23;;;9.53;;
4529;SDS011;2277;51.626;7.516;2024-01-25T12:57:56;33.23;;;11.53;;
4529;SDS011;2277;51.626;7.516;2024-01-25T13:00:23;18.50;;;8.17;;
4529;SDS011;2277;51.626;7.516;2024-01-25T13:02:48;16.50;;;7.73;;
4529;SDS011;2277;51.626;7.516;2024-01-25T13:05:14;15.10;;;6.47;;
4529;SDS011;2277;51.626;7.516;2024-01-25T13:07:40;12.30;;;7.53;;
4529;SDS011;2277;51.626;7.516;2024-01-25T13:10:07;13.23;;;6.30;;
4529;SDS011;2277;51.626;7.516;2024-01-25T13:12:36;16.33;;;6.50;;
4529;SDS011;2277;51.626;7.516;2024-01-25T13:15:03;19.20;;;6.13;;
4529;SDS011;2277;51.626;7.516;2024-01-25T13:17:30;13.70;;;6.53;;
4529;SDS011;2277;51.626;7.516;2024-01-25T13:19:57;19.53;;;6.60;;
4529;SDS011;2277;51.626;7.516;2024-01-25T13:22:23;14.37;;;7.13;;
4529;SDS011;2277;51.626;7.516;2024-01-25T13:24:49;14.23;;;5.60;;
4529;SDS011;2277;51.626;7.516;2024-01-25T13:27:15;15.87;;;6.90;;
4529;SDS011;2277;51.626;7.516;2024-01-25T13:29:41;13.77;;;6.17;;
4529;SDS011;2277;51.626;7.516;2024-01-25T13:32:07;13.03;;;4.93;;
4529;SDS011;2277;51.626;7.516;2024-01-25T13:34:33;14.03;;;5.97;;
4529;SDS011;2277;51.626;7.516;2024-01-25T13:36:58;15.03;;;5.37;;
4529;SDS011;2277;51.626;7.516;2024-01-25T13:39:24;11.13;;;4.50;;
4529;SDS011;2277;51.626;7.516;2024-01-25T13:41:50;8.23;;;5.33;;
4529;SDS011;2277;51.626;7.516;2024-01-25T13:44:16;12.67;;;6.70;;
4529;SDS011;2277;51.626;7.516;2024-01-25T13:46:42;14.97;;;6.43;;
4529;SDS011;2277;51.626;7.516;2024-01-25T13:49:08;40.23;;;6.03;;
4529;SDS011;2277;51.626;7.516;2024-01-25T13:51:33;14.67;;;5.80;;
4529;SDS011;2277;51.626;7.516;2024-01-25T13:53:59;12.80;;;5.63;;
4529;SDS011;2277;51.626;7.516;2024-01-25T13:56:25;20.63;;;6.93;;
4529;SDS011;2277;51.626;7.516;2024-01-25T13:58:51;12.97;;;6.17;;
4529;SDS011;2277;51.626;7.516;2024-01-25T14:01:16;8.83;;;5.60;;
4529;SDS011;2277;51.626;7.516;2024-01-25T14:03:42;13.90;;;5.93;;
4529;SDS011;2277;51.626;7.516;2024-01-25T14:06:08;17.57;;;6.67;;
4529;SDS011;2277;51.626;7.516;2024-01-25T14:08:35;17.20;;;6.57;;
4529;SDS011;2277;51.626;7.516;2024-01-25T14:11:00;16.57;;;5.17;;
4529;SDS011;2277;51.626;7.516;2024-01-25T14:13:27;13.50;;;6.40;;
4529;SDS011;2277;51.626;7.516;2024-01-25T14:15:53;18.87;;;6.20;;
4529;SDS011;2277;51.626;7.516;2024-01-25T14:18:18;11.53;;;5.63;;
4529;SDS011;2277;51.626;7.516;2024-01-25T14:20:44;12.80;;;5.77;;
4529;SDS011;2277;51.626;7.516;2024-01-25T14:23:10;20.80;;;7.47;;
4529;SDS011;2277;51.626;7.516;2024-01-25T14:25:35;21.13;;;6.07;;
4529;SDS011;2277;51.626;7.516;2024-01-25T14:28:01;13.80;;;6.43;;
4529;SDS011;2277;51.626;7.516;2024-01-25T14:30:26;20.60;;;7.93;;
4529;SDS011;2277;51.626;7.516;2024-01-25T14:32:54;15.50;;;8.50;;
4529;SDS011;2277;51.626;7.516;2024-01-25T14:35:21;24.53;;;6.70;;
4529;SDS011;2277;51.626;7.516;2024-01-25T14:37:53;17.97;;;7.13;;
4529;SDS011;2277;51.626;7.516;2024-01-25T14:40:22;12.30;;;5.77;;
4529;SDS011;2277;51.626;7.516;2024-01-25T14:42:47;18.50;;;5.90;;
4529;SDS011;2277;51.626;7.516;2024-01-25T14:45:13;15.03;;;5.73;;
4529;SDS011;2277;51.626;7.516;2024-01-25T14:47:39;21.33;;;7.10;;
4529;SDS011;2277;51.626;7.516;2024-01-25T14:50:05;24.97;;;6.90;;
4529;SDS011;2277;51.626;7.516;2024-01-25T14:52:32;15.33;;;6.40;;
4529;SDS011;2277;51.626;7.516;2024-01-25T14:54:59;17.03;;;6.47;;
4529;SDS011;2277;51.626;7.516;2024-01-25T14:57:26;11.53;;;5.40;;